Time;durP1;ratioP1;P1;durP2;ratioP2;P2;SDS_P1;SDS_P2;PMS_P1;PMS_P2;Temp;Humidity;BMP_temperature;BMP_pressure;BME280_temperature;BME280_humidity;BME280_pressure;Samples;Min_cycle;Max_cycle;Signal;HPM_P1;HPM_P2
2023/03/31 00:01:03;;;;;;;17.10;5.28;;;12.20;99.90;;;;;;4935809;29;20123;-93
2023/03/31 00:03:49;;;;;;;16.10;4.35;;;11.60;99.90;;;;;;4936913;29;20063;-93
2023/03/31 00:06:41;;;;;;;21.88;3.97;;;12.30;99.90;;;;;;4937250;29;20028;-93
2023/03/31 00:09:28;;;;;;;13.25;3.67;;;11.60;99.90;;;;;;4936029;29;20488;-92
2023/03/31 00:12:12;;;;;;;14.88;4.00;;;11.60;99.90;;;;;;4936322;29;20071;-93
2023/03/31 00:15:03;;;;;;;12.80;3.30;;;12.40;99.90;;;;;;4936261;29;20391;-92
2023/03/31 00:17:31;;;;;;;16.55;3.50;;;11.70;99.90;;;;;;4936130;29;20507;-93
2023/03/31 00:20:16;;;;;;;16.10;4.32;;;12.40;99.90;;;;;;4936557;29;20051;-92
2023/03/31 00:23:00;;;;;;;15.40;3.03;;;10.60;99.90;;;;;;4936468;29;20053;-92
2023/03/31 00:25:40;;;;;;;14.10;3.38;;;12.80;99.90;;;;;;4942927;23;20127;-92
2023/03/31 00:28:11;;;;;;;14.77;3.13;;;11.90;99.90;;;;;;4936390;29;20551;-92
2023/03/31 00:31:01;;;;;;;12.30;2.40;;;12.70;99.90;;;;;;4935488;29;20055;-92
2023/03/31 00:33:41;;;;;;;14.57;3.20;;;11.80;99.90;;;;;;4899758;29;20036;-93
2023/03/31 00:36:07;;;;;;;15.80;3.05;;;11.80;99.90;;;;;;4935982;29;20114;-92
2023/03/31 00:38:35;;;;;;;12.10;2.83;;;11.70;99.90;;;;;;4937599;29;20032;-92
2023/03/31 00:41:02;;;;;;;8.10;2.35;;;12.40;99.90;;;;;;4955553;28;20099;-92
2023/03/31 00:43:35;;;;;;;13.93;2.97;;;12.20;99.90;;;;;;4958363;28;20039;-93
2023/03/31 00:49:38;;;;;;;10.88;2.55;;;12.30;99.90;;;;;;4936164;29;20030;-93
2023/03/31 00:52:36;;;;;;;10.55;1.98;;;11.90;99.90;;;;;;4935883;29;20115;-93
2023/03/31 00:55:15;;;;;;;7.25;2.00;;;11.90;99.90;;;;;;4903006;29;20035;-92
2023/03/31 00:57:54;;;;;;;16.52;2.75;;;12.50;99.90;;;;;;4935103;29;20039;-93
2023/03/31 01:00:32;;;;;;;8.20;2.42;;;12.00;99.90;;;;;;4935910;29;20040;-93
2023/03/31 01:03:08;;;;;;;9.68;2.28;;;11.80;99.90;;;;;;4936069;29;20098;-91
2023/03/31 01:06:12;;;;;;;11.02;2.83;;;12.70;99.90;;;;;;4936224;29;20035;-93
2023/03/31 01:08:57;;;;;;;10.07;2.80;;;11.80;99.90;;;;;;4939334;29;20031;-92
2023/03/31 01:11:33;;;;;;;14.48;3.58;;;12.40;99.90;;;;;;4938260;29;20475;-91
2023/03/31 01:14:22;;;;;;;7.15;2.45;;;13.10;99.90;;;;;;4939344;29;20027;-92
2023/03/31 01:17:39;;;;;;;8.52;3.05;;;11.40;99.90;;;;;;4923804;29;20032;-91
2023/03/31 01:20:30;;;;;;;9.52;2.95;;;11.80;99.90;;;;;;4936520;29;20032;-90
2023/03/31 01:23:15;;;;;;;9.27;2.58;;;11.20;99.90;;;;;;4938843;29;20258;-91
2023/03/31 01:32:40;;;;;;;12.15;2.95;;;12.70;99.90;;;;;;4918904;29;20420;-92
2023/03/31 01:35:47;;;;;;;16.05;3.75;;;11.80;99.90;;;;;;4919968;29;20130;-94
2023/03/31 01:38:31;;;;;;;14.45;2.90;;;11.90;99.90;;;;;;4868822;29;20035;-92
2023/03/31 01:41:06;;;;;;;8.82;2.97;;;11.80;99.90;;;;;;4881648;29;20037;-94
2023/03/31 01:44:37;;;;;;;9.45;2.83;;;12.60;99.90;;;;;;4882171;29;20021;-94
2023/03/31 01:47:57;;;;;;;6.85;2.55;;;13.40;99.90;;;;;;4818555;29;20048;-94
2023/03/31 01:53:39;;;;;;;15.15;3.20;;;11.80;99.90;;;;;;4952621;23;20294;-91
2023/03/31 01:56:45;;;;;;;16.92;3.78;;;13.30;99.90;;;;;;4938629;29;20047;-92
2023/03/31 01:59:55;;;;;;;17.40;3.40;;;11.10;99.90;;;;;;4938226;29;20023;-94
2023/03/31 02:02:48;;;;;;;10.25;3.60;;;11.70;99.90;;;;;;4937832;29;20035;-92
2023/03/31 02:05:26;;;;;;;13.48;3.65;;;13.10;99.90;;;;;;4905585;29;20035;-91
2023/03/31 02:08:15;;;;;;;18.20;4.10;;;11.70;99.90;;;;;;4937554;29;20031;-92
2023/03/31 02:10:59;;;;;;;22.15;3.85;;;11.70;99.90;;;;;;4938230;29;20050;-93
2023/03/31 02:13:46;;;;;;;18.15;3.60;;;11.70;99.90;;;;;;4938170;29;20035;-94
2023/03/31 02:16:25;;;;;;;12.90;3.85;;;12.50;99.90;;;;;;4937266;29;20066;-92
2023/03/31 02:19:07;;;;;;;13.75;3.53;;;13.10;99.90;;;;;;4938285;29;20035;-93
2023/03/31 02:21:55;;;;;;;12.90;3.28;;;11.70;99.90;;;;;;4936982;29;20395;-94
2023/03/31 02:24:25;;;;;;;17.17;3.88;;;10.60;99.90;;;;;;4936688;29;20051;-92
2023/03/31 02:27:09;;;;;;;14.23;4.30;;;12.30;99.90;;;;;;4940177;29;20028;-94
2023/03/31 02:29:35;;;;;;;16.30;4.15;;;12.10;99.90;;;;;;4955134;28;20028;-93
2023/03/31 02:32:22;;;;;;;14.07;3.85;;;12.30;99.90;;;;;;4959218;28;20058;-92
2023/03/31 02:35:05;;;;;;;17.17;3.80;;;12.30;99.90;;;;;;4940448;29;20053;-93
2023/03/31 02:37:52;;;;;;;20.00;4.78;;;11.60;99.90;;;;;;4937147;29;20039;-93
2023/03/31 02:40:30;;;;;;;18.60;3.75;;;12.30;99.90;;;;;;4937448;29;20032;-95
2023/03/31 02:42:56;;;;;;;17.20;4.15;;;12.00;99.90;;;;;;4937279;29;20032;-93
2023/03/31 02:45:40;;;;;;;15.20;3.95;;;12.00;99.90;;;;;;4936938;29;20024;-92
2023/03/31 02:48:16;;;;;;;15.38;4.40;;;11.60;99.90;;;;;;4937833;29;20423;-92
2023/03/31 02:51:19;;;;;;;14.00;3.95;;;11.00;99.90;;;;;;4966250;23;20056;-92
2023/03/31 02:54:10;;;;;;;19.00;3.78;;;11.60;99.90;;;;;;4936863;29;20039;-93
2023/03/31 02:57:29;;;;;;;21.25;3.95;;;11.60;99.90;;;;;;4936928;29;20030;-93
2023/03/31 03:00:28;;;;;;;12.10;3.47;;;12.40;99.90;;;;;;4936961;29;20043;-93
2023/03/31 03:03:21;;;;;;;19.45;4.25;;;11.60;99.90;;;;;;4936889;29;20035;-93
2023/03/31 03:06:29;;;;;;;14.70;4.43;;;11.60;99.90;;;;;;4992363;23;20379;-93
2023/03/31 03:09:17;;;;;;;15.30;3.67;;;11.60;99.90;;;;;;4936824;29;20020;-93
2023/03/31 03:12:07;;;;;;;13.15;3.90;;;11.60;99.90;;;;;;4990573;23;20068;-92
2023/03/31 03:15:01;;;;;;;14.10;3.00;;;11.50;99.90;;;;;;4937244;29;20412;-94
2023/03/31 03:17:48;;;;;;;8.93;2.85;;;11.50;99.90;;;;;;4940168;29;20036;-93
2023/03/31 03:20:26;;;;;;;19.33;3.85;;;11.60;99.90;;;;;;4937097;29;20564;-92
2023/03/31 03:23:06;;;;;;;5.95;3.38;;;12.20;99.90;;;;;;4936702;29;20028;-94
2023/03/31 03:25:57;;;;;;;11.57;3.58;;;12.10;99.90;;;;;;4936061;29;20079;-92
2023/03/31 03:28:22;;;;;;;11.93;3.33;;;11.90;99.90;;;;;;4936393;29;20035;-94
2023/03/31 03:31:03;;;;;;;8.57;2.90;;;12.50;99.90;;;;;;4936292;29;20384;-94
2023/03/31 03:33:40;;;;;;;;;;;12.80;99.90;;;;;;4936946;29;20364;-93
2023/03/31 03:36:15;;;;;;;17.08;3.88;;;10.80;99.90;;;;;;4936891;29;19910;-94
2023/03/31 03:38:56;;;;;;;9.70;2.70;;;12.30;99.90;;;;;;4936066;29;20036;-93
2023/03/31 03:41:37;;;;;;;14.52;2.97;;;12.20;99.90;;;;;;4991983;23;20055;-93
2023/03/31 03:44:21;;;;;;;13.80;3.20;;;12.20;99.90;;;;;;4937053;29;20035;-93
2023/03/31 03:46:56;;;;;;;;;;;;;;;;;;;;;
2023/03/31 03:49:28;;;;;;;9.95;3.10;;;12.00;99.90;;;;;;4858996;29;20038;-92
2023/03/31 03:52:17;;;;;;;14.25;3.88;;;11.40;99.90;;;;;;4859847;29;20084;-93
2023/03/31 03:55:01;;;;;;;13.93;3.33;;;11.50;99.90;;;;;;4859684;29;20030;-92
2023/03/31 03:57:41;;;;;;;16.35;3.63;;;12.20;99.90;;;;;;4963605;23;20044;-90
2023/03/31 04:00:31;;;;;;;13.95;4.65;;;11.90;99.90;;;;;;4936211;29;20039;-92
2023/03/31 04:03:21;;;;;;;11.07;2.80;;;10.70;99.90;;;;;;4936783;29;20036;-93
2023/03/31 04:06:06;;;;;;;13.47;3.23;;;10.90;99.90;;;;;;4936382;29;20032;-92
2023/03/31 04:08:44;;;;;;;8.55;2.55;;;11.30;99.90;;;;;;4936024;29;20031;-93
2023/03/31 04:11:34;;;;;;;12.25;2.60;;;12.00;99.90;;;;;;4936562;29;20020;-92
2023/03/31 04:14:11;;;;;;;12.00;2.83;;;11.20;99.90;;;;;;4935896;29;20031;-92
2023/03/31 04:16:57;;;;;;;13.27;2.92;;;10.60;99.90;;;;;;4936981;29;20487;-91
2023/03/31 04:19:26;;;;;;;12.23;3.08;;;12.00;99.90;;;;;;4957861;28;20016;-93
2023/03/31 04:22:03;;;;;;;10.45;3.10;;;12.00;99.90;;;;;;4952073;28;20040;-93
2023/03/31 04:24:51;;;;;;;7.22;2.40;;;11.20;99.90;;;;;;4943673;23;20096;-94
2023/03/31 04:28:05;;;;;;;10.73;2.75;;;11.80;99.90;;;;;;4935806;29;20032;-92
2023/03/31 04:30:57;;;;;;;11.95;3.22;;;12.50;99.90;;;;;;4936017;29;20043;-92
2023/03/31 04:33:44;;;;;;;7.57;2.42;;;11.20;99.90;;;;;;4935606;29;20028;-92
2023/03/31 04:37:10;;;;;;;12.60;3.00;;;11.20;99.90;;;;;;4935917;29;20030;-93
2023/03/31 04:52:18;;;;;;;10.45;2.58;;;11.30;99.90;;;;;;5707468;23;20059;-92
2023/03/31 04:54:49;;;;;;;9.15;2.30;;;11.30;99.90;;;;;;4929719;29;20450;-93
2023/03/31 05:00:56;;;;;;;11.85;2.38;;;11.30;99.90;;;;;;4928502;29;20051;-91
2023/03/31 05:10:42;;;;;;;6.70;2.00;;;11.30;99.90;;;;;;4920589;29;20487;-92
2023/03/31 05:13:15;;;;;;;9.90;2.10;;;11.30;99.90;;;;;;4913640;29;20048;-92
2023/03/31 05:19:22;;;;;;;10.48;1.95;;;11.20;99.90;;;;;;4862173;29;20081;-91
2023/03/31 05:21:48;;;;;;;8.82;2.13;;;11.80;99.90;;;;;;4863124;29;20045;-94
2023/03/31 05:24:29;;;;;;;14.02;1.95;;;11.00;99.90;;;;;;4895028;29;20504;-93
2023/03/31 05:27:15;;;;;;;8.77;2.00;;;11.70;99.90;;;;;;4920327;29;20032;-93
2023/03/31 05:29:50;;;;;;;9.18;1.98;;;11.50;99.90;;;;;;4920198;29;20024;-92
2023/03/31 05:32:18;;;;;;;11.50;1.80;;;11.80;99.90;;;;;;4920598;29;20031;-93
2023/03/31 05:35:10;;;;;;;7.50;2.17;;;11.30;99.90;;;;;;4920776;29;20115;-92
2023/03/31 05:37:57;;;;;;;10.82;2.47;;;10.70;99.90;;;;;;4987584;23;20021;-94
2023/03/31 05:40:23;;;;;;;7.38;1.60;;;11.70;99.90;;;;;;5004297;23;20056;-93
2023/03/31 05:43:10;;;;;;;8.25;2.08;;;11.70;99.90;;;;;;4938795;29;20135;-92
2023/03/31 05:45:36;;;;;;;10.35;2.28;;;10.20;99.90;;;;;;4938195;29;20436;-92
2023/03/31 05:48:14;;;;;;;6.82;1.92;;;11.60;99.90;;;;;;4939491;29;20551;-93
2023/03/31 05:50:42;;;;;;;14.27;1.70;;;12.50;99.90;;;;;;4938374;29;20028;-92
2023/03/31 05:53:33;;;;;;;7.20;1.85;;;11.20;99.90;;;;;;4939477;29;20376;-93
2023/03/31 05:56:14;;;;;;;;;;;11.20;99.90;;;;;;4967791;23;20497;-92
2023/03/31 05:59:31;;;;;;;;;;;;;;;;;;;;;
2023/03/31 06:11:26;;;;;;;5.20;1.60;;;11.20;99.90;;;;;;4980332;28;20034;-94
2023/03/31 06:31:02;;;;;;;5.32;1.20;;;11.20;99.90;;;;;;4938991;29;20035;-93
2023/03/31 06:33:27;;;;;;;7.10;1.67;;;11.70;99.90;;;;;;4938493;29;20032;-94
2023/03/31 06:36:06;;;;;;;7.93;1.60;;;11.70;99.90;;;;;;4937862;29;20032;-94
2023/03/31 06:42:00;;;;;;;3.75;1.20;;;11.10;99.90;;;;;;4938452;29;20054;-95
2023/03/31 06:44:48;;;;;;;4.25;1.23;;;11.60;99.90;;;;;;4938066;29;20103;-94
2023/03/31 06:47:14;;;;;;;2.42;1.42;;;11.10;99.90;;;;;;4938131;29;20054;-93
2023/03/31 06:49:57;;;;;;;3.70;1.35;;;11.70;99.90;;;;;;4937211;29;20027;-93
2023/03/31 06:52:23;;;;;;;5.45;1.10;;;10.70;99.90;;;;;;4938241;29;20506;-94
2023/03/31 06:55:08;;;;;;;2.90;1.38;;;11.70;99.90;;;;;;4936912;29;20573;-92
2023/03/31 06:57:42;;;;;;;5.28;1.27;;;9.70;99.90;;;;;;4936406;29;20024;-95
2023/03/31 07:00:31;;;;;;;5.30;1.35;;;11.80;99.90;;;;;;4937474;29;20111;-94
2023/03/31 07:03:07;;;;;;;4.82;1.08;;;11.10;99.90;;;;;;4935959;29;20123;-92
2023/03/31 07:21:29;;;;;;;5.28;1.83;;;11.20;99.90;;;;;;5127168;23;20047;-92
2023/03/31 07:24:16;;;;;;;2.15;1.20;;;11.20;99.90;;;;;;4936242;29;20040;-92
2023/03/31 07:27:06;;;;;;;8.13;2.22;;;11.20;99.90;;;;;;4936699;29;20107;-91
2023/03/31 07:32:53;;;;;;;4.13;1.80;;;11.20;99.90;;;;;;5041617;23;20087;-92
2023/03/31 07:38:19;;;;;;;5.82;2.03;;;11.20;99.90;;;;;;4955206;23;20060;-90
2023/03/31 07:41:03;;;;;;;7.07;2.53;;;12.00;99.90;;;;;;4936980;29;20035;-91
2023/03/31 07:43:31;;;;;;;11.23;3.10;;;11.30;99.90;;;;;;4937384;29;20027;-90
2023/03/31 07:46:20;;;;;;;11.43;2.97;;;12.80;99.90;;;;;;4937003;29;20074;-91
2023/03/31 07:49:02;;;;;;;14.38;3.25;;;11.30;99.90;;;;;;4936901;29;20024;-86
2023/03/31 07:51:28;;;;;;;5.45;2.70;;;10.80;99.90;;;;;;4934982;29;20020;-86
2023/03/31 07:54:29;;;;;;;11.60;3.53;;;12.50;99.90;;;;;;4935965;29;20020;-91
2023/03/31 08:13:05;;;;;;;16.90;3.30;;;11.80;99.90;;;;;;4936056;29;20504;-89
2023/03/31 08:21:28;;;;;;;13.20;3.75;;;11.50;99.90;;;;;;4916916;29;20396;-87
2023/03/31 08:24:10;;;;;;;15.25;3.60;;;11.60;99.90;;;;;;4995880;23;20066;-88
2023/03/31 08:26:35;;;;;;;19.42;3.80;;;12.40;99.90;;;;;;4922017;29;20536;-89
2023/03/31 08:29:48;;;;;;;16.38;3.78;;;12.20;99.90;;;;;;4938249;29;20160;-90
2023/03/31 08:32:17;;;;;;;12.55;3.50;;;11.30;99.90;;;;;;4936989;29;20027;-89
2023/03/31 08:34:44;;;;;;;15.60;3.97;;;12.40;99.90;;;;;;4938572;29;20027;-89
2023/03/31 08:37:24;;;;;;;21.60;4.95;;;11.60;99.90;;;;;;4939920;29;20038;-91
2023/03/31 08:39:54;;;;;;;24.25;4.47;;;11.60;99.90;;;;;;4939102;29;20614;-91
2023/03/31 08:49:57;;;;;;;21.60;4.68;;;11.70;99.90;;;;;;4820880;29;20550;-92
2023/03/31 08:52:31;;;;;;;22.58;5.18;;;11.80;99.90;;;;;;4862502;29;20033;-92
2023/03/31 08:56:10;;;;;;;23.70;4.53;;;12.50;99.90;;;;;;4862382;29;20037;-93
2023/03/31 08:58:47;;;;;;;17.05;3.22;;;11.30;99.90;;;;;;4825941;29;20030;-92
2023/03/31 09:02:07;;;;;;;28.35;4.13;;;12.20;99.90;;;;;;4956014;23;20062;-88
2023/03/31 09:08:37;;;;;;;21.27;3.90;;;11.60;99.90;;;;;;4920871;28;20066;-88
2023/03/31 09:14:01;;;;;;;18.73;4.38;;;12.00;99.90;;;;;;4955843;28;20038;-87
2023/03/31 09:17:11;;;;;;;16.52;3.45;;;12.50;99.90;;;;;;4956870;29;20024;-90
2023/03/31 09:19:57;;;;;;;17.65;3.53;;;12.10;99.90;;;;;;4957279;28;20019;-90
2023/03/31 09:22:44;;;;;;;14.98;3.85;;;12.10;99.90;;;;;;4957857;29;20098;-88
2023/03/31 09:25:25;;;;;;;24.77;3.33;;;13.00;99.90;;;;;;4954759;28;20039;-90
2023/03/31 09:28:07;;;;;;;;;;;12.20;99.90;;;;;;4957294;29;20031;-90
2023/03/31 09:30:41;;;;;;;15.25;3.60;;;11.70;99.90;;;;;;4956666;29;20049;-90
2023/03/31 09:33:30;;;;;;;15.48;3.60;;;13.30;99.90;;;;;;4957788;28;20094;-90
2023/03/31 09:35:59;;;;;;;17.80;3.95;;;12.30;99.90;;;;;;4956944;29;20059;-90
2023/03/31 09:38:29;;;;;;;20.67;4.32;;;12.50;99.90;;;;;;4956500;29;20058;-90
2023/03/31 09:40:58;;;;;;;22.83;4.22;;;12.30;99.90;;;;;;4957650;29;20039;-89
2023/03/31 09:43:37;;;;;;;23.13;5.60;;;13.10;99.90;;;;;;4957123;28;20026;-90
2023/03/31 09:46:34;;;;;;;15.43;3.83;;;12.50;99.90;;;;;;4955670;29;20109;-90
2023/03/31 09:49:21;;;;;;;17.50;3.70;;;12.30;99.90;;;;;;4944118;28;20039;-91
2023/03/31 09:52:06;;;;;;;17.95;3.47;;;12.30;99.90;;;;;;4975110;28;20051;-90
2023/03/31 09:54:40;;;;;;;17.77;4.25;;;12.30;99.90;;;;;;4971522;29;20082;-89
2023/03/31 09:57:25;;;;;;;14.25;3.17;;;12.30;99.90;;;;;;4957928;29;20019;-89
2023/03/31 10:00:17;;;;;;;21.85;4.15;;;12.40;99.90;;;;;;4955571;29;20055;-89
2023/03/31 10:02:48;;;;;;;13.30;3.53;;;12.40;99.90;;;;;;4952997;29;20505;-89
2023/03/31 10:05:35;;;;;;;15.93;3.30;;;12.50;99.90;;;;;;4957736;28;20027;-91
2023/03/31 10:08:15;;;;;;;14.25;3.42;;;13.40;99.90;;;;;;4957704;29;20027;-91
2023/03/31 10:10:48;;;;;;;;;;;12.90;99.90;;;;;;4957996;28;20416;-91
2023/03/31 10:13:39;;;;;;;12.93;3.42;;;12.50;99.90;;;;;;4956572;29;19907;-90
2023/03/31 10:16:24;;;;;;;22.83;3.78;;;12.60;99.90;;;;;;4902984;28;20033;-90
2023/03/31 10:19:21;;;;;;;17.25;3.20;;;13.00;99.90;;;;;;4956643;29;20279;-91
2023/03/31 10:21:54;;;;;;;17.02;3.45;;;12.60;99.90;;;;;;4923760;28;20043;-89
2023/03/31 10:24:37;;;;;;;15.88;3.53;;;13.50;99.90;;;;;;4956575;29;20424;-88
2023/03/31 10:27:06;;;;;;;13.45;3.67;;;13.30;99.90;;;;;;4956917;28;20027;-88
2023/03/31 10:29:38;;;;;;;15.07;3.38;;;12.50;99.90;;;;;;4955207;28;20049;-88
2023/03/31 10:32:27;;;;;;;13.65;3.28;;;13.20;99.90;;;;;;4956593;28;20031;-89
2023/03/31 10:35:21;;;;;;;8.40;2.67;;;12.40;99.90;;;;;;4955975;29;20464;-89
2023/03/31 10:37:49;;;;;;;21.55;3.55;;;12.50;99.90;;;;;;4956446;28;20094;-88
2023/03/31 10:40:22;;;;;;;12.93;2.90;;;12.50;99.90;;;;;;4956168;29;20039;-89
2023/03/31 10:43:15;;;;;;;16.80;3.00;;;12.40;99.90;;;;;;4955730;29;20398;-88
2023/03/31 10:45:50;;;;;;;17.05;3.30;;;12.40;99.90;;;;;;4956209;29;20087;-89
2023/03/31 10:48:33;;;;;;;19.42;4.20;;;12.80;99.90;;;;;;4956043;29;20024;-88
2023/03/31 10:51:04;;;;;;;14.45;2.97;;;12.30;99.90;;;;;;4955571;29;20027;-88
2023/03/31 10:53:45;;;;;;;13.95;3.17;;;12.30;99.90;;;;;;4954228;29;20030;-89
2023/03/31 10:56:39;;;;;;;28.85;4.45;;;12.20;99.90;;;;;;4953068;29;20073;-90
2023/03/31 10:59:26;;;;;;;18.02;4.07;;;12.20;99.90;;;;;;4954088;29;20034;-89
2023/03/31 11:02:29;;;;;;;22.00;4.68;;;12.00;99.90;;;;;;4935866;29;20054;-89
2023/03/31 11:05:43;;;;;;;21.88;3.50;;;12.00;99.90;;;;;;4936828;29;20075;-90
2023/03/31 11:08:43;;;;;;;18.90;3.70;;;12.00;99.90;;;;;;4937307;29;20096;-89
2023/03/31 11:11:24;;;;;;;22.58;3.95;;;11.90;99.90;;;;;;4936050;29;20075;-89
2023/03/31 11:14:32;;;;;;;17.90;3.35;;;11.90;99.90;;;;;;4932425;29;20096;-90
2023/03/31 11:17:12;;;;;;;17.25;4.05;;;11.90;99.90;;;;;;4916653;29;20535;-90
2023/03/31 11:19:54;;;;;;;17.40;3.90;;;12.00;99.90;;;;;;4917175;29;20043;-88
2023/03/31 11:22:26;;;;;;;20.30;4.05;;;12.00;99.90;;;;;;4952112;29;20042;-89
2023/03/31 11:25:29;;;;;;;19.52;4.40;;;12.70;99.90;;;;;;4954895;29;20098;-88
2023/03/31 11:28:13;;;;;;;21.30;4.07;;;12.00;99.90;;;;;;4955076;29;20019;-90
2023/03/31 11:31:17;;;;;;;19.70;3.88;;;12.50;99.90;;;;;;4954864;29;20055;-88
2023/03/31 11:34:02;;;;;;;18.35;3.88;;;12.10;99.90;;;;;;4841950;29;20121;-91
2023/03/31 11:36:41;;;;;;;;;;;;;;;;;;;;;
2023/03/31 11:39:55;;;;;;;10.38;3.22;;;12.10;99.90;;;;;;4920577;29;20059;-88
2023/03/31 11:42:41;;;;;;;6.22;2.10;;;12.10;99.90;;;;;;4933445;29;20033;-89
2023/03/31 11:45:18;;;;;;;7.57;1.92;;;12.10;99.90;;;;;;4925674;29;20028;-90
2023/03/31 11:47:47;;;;;;;10.52;2.05;;;12.20;99.90;;;;;;4932461;29;20028;-89
2023/03/31 11:50:20;;;;;;;9.93;2.00;;;12.20;99.90;;;;;;4935403;29;20058;-90
2023/03/31 11:53:17;;;;;;;7.28;2.25;;;12.10;99.90;;;;;;4935719;29;20031;-94
2023/03/31 11:55:46;;;;;;;6.32;1.77;;;12.10;99.90;;;;;;4938516;29;20050;-92
2023/03/31 11:58:34;;;;;;;7.72;1.85;;;12.20;99.90;;;;;;4935510;29;20047;-88
2023/03/31 12:01:28;;;;;;;10.65;2.00;;;13.00;99.90;;;;;;4935048;28;20064;-88
2023/03/31 12:04:01;;;;;;;13.63;2.92;;;12.00;99.90;;;;;;4936518;29;20032;-89
2023/03/31 12:06:34;;;;;;;14.45;2.40;;;12.50;99.90;;;;;;4935419;29;20027;-89
2023/03/31 12:09:23;;;;;;;9.57;2.50;;;12.00;99.90;;;;;;4936567;29;20111;-89
2023/03/31 12:12:05;;;;;;;6.22;1.83;;;12.00;99.90;;;;;;4936435;29;20031;-89
2023/03/31 12:14:53;;;;;;;7.50;2.13;;;12.00;99.90;;;;;;4935284;29;20110;-90
2023/03/31 12:17:35;;;;;;;13.00;2.60;;;12.00;99.90;;;;;;4929309;29;20043;-89
2023/03/31 12:20:09;;;;;;;7.57;2.35;;;12.00;99.90;;;;;;4931061;29;20044;-88
2023/03/31 12:22:45;;;;;;;13.25;2.55;;;11.90;99.90;;;;;;4931704;29;20035;-89
2023/03/31 12:25:21;;;;;;;9.23;2.40;;;12.00;99.90;;;;;;4931313;29;20024;-88
2023/03/31 12:27:50;;;;;;;13.45;2.33;;;12.00;99.90;;;;;;4931070;29;20521;-89
2023/03/31 12:30:18;;;;;;;8.68;2.60;;;11.90;99.90;;;;;;4934065;29;20040;-89
2023/03/31 12:32:59;;;;;;;7.80;2.95;;;11.90;99.90;;;;;;4935606;29;20036;-89
2023/03/31 12:35:27;;;;;;;;;;;11.90;99.90;;;;;;4935984;29;20383;-89
2023/03/31 12:38:11;;;;;;;9.50;2.88;;;11.90;99.90;;;;;;4955632;23;19922;-89
2023/03/31 12:40:49;;;;;;;15.20;2.90;;;11.90;99.90;;;;;;4973725;28;20478;-89
2023/03/31 12:43:14;;;;;;;14.32;2.55;;;11.90;99.90;;;;;;4974950;28;20037;-90
2023/03/31 12:45:52;;;;;;;13.93;3.00;;;11.90;99.90;;;;;;4975059;28;20022;-89
2023/03/31 12:48:37;;;;;;;9.48;2.33;;;11.90;99.90;;;;;;4974565;28;20395;-88
2023/03/31 12:51:41;;;;;;;9.07;2.60;;;11.90;99.90;;;;;;4974377;28;20035;-89
2023/03/31 12:54:34;;;;;;;12.07;2.65;;;12.00;99.90;;;;;;4974268;28;20023;-88
2023/03/31 12:57:00;;;;;;;11.90;2.38;;;12.00;99.90;;;;;;4974469;28;20026;-89
2023/03/31 12:59:33;;;;;;;13.82;2.50;;;12.00;99.90;;;;;;4974382;28;20019;-89
2023/03/31 13:02:21;;;;;;;9.88;2.53;;;12.00;99.90;;;;;;4976604;28;20038;-89
2023/03/31 13:04:48;;;;;;;18.65;3.17;;;12.30;99.90;;;;;;4977468;28;20383;-89
2023/03/31 13:07:25;;;;;;;15.52;3.22;;;12.00;99.90;;;;;;4977642;28;20054;-89
2023/03/31 13:10:15;;;;;;;4.53;1.75;;;12.10;99.90;;;;;;4976841;28;20022;-89
2023/03/31 13:13:01;;;;;;;6.10;1.30;;;12.70;99.90;;;;;;4976745;28;20055;-89
2023/03/31 13:15:30;;;;;;;12.63;2.30;;;12.00;99.90;;;;;;4959318;28;20170;-89
2023/03/31 13:18:06;;;;;;;5.70;2.00;;;11.90;99.90;;;;;;4977304;28;20402;-89
2023/03/31 13:20:41;;;;;;;8.95;1.90;;;12.00;99.90;;;;;;4977065;28;20039;-91
2023/03/31 13:23:24;;;;;;;9.35;2.10;;;12.60;99.90;;;;;;4961320;28;20054;-89
2023/03/31 13:25:54;;;;;;;7.07;1.92;;;12.00;99.90;;;;;;4999143;28;20015;-89
2023/03/31 13:28:27;;;;;;;9.07;2.27;;;12.10;99.90;;;;;;4998539;28;20027;-92
2023/03/31 13:31:05;;;;;;;11.85;2.88;;;12.10;99.90;;;;;;4987994;28;20270;-89
2023/03/31 13:33:40;;;;;;;10.98;2.33;;;11.90;99.90;;;;;;4977936;28;20042;-89
2023/03/31 13:36:17;;;;;;;7.20;1.92;;;12.20;99.90;;;;;;4976432;28;20031;-91
2023/03/31 13:38:51;;;;;;;6.32;1.73;;;12.20;99.90;;;;;;4976256;28;20054;-90
2023/03/31 13:41:36;;;;;;;7.28;2.10;;;12.20;99.90;;;;;;4976675;28;20035;-89
2023/03/31 13:44:39;;;;;;;12.80;2.50;;;12.20;99.90;;;;;;4970384;28;20050;-90
2023/03/31 13:47:26;;;;;;;8.35;2.05;;;12.20;99.90;;;;;;4966757;28;20037;-89
2023/03/31 13:50:14;;;;;;;7.55;2.08;;;12.20;99.90;;;;;;4967096;28;20019;-90
2023/03/31 13:52:45;;;;;;;10.95;1.83;;;12.20;99.90;;;;;;4965274;28;20107;-90
2023/03/31 13:55:45;;;;;;;9.43;1.70;;;12.10;99.90;;;;;;4969181;28;20530;-90
2023/03/31 13:58:31;;;;;;;3.13;1.67;;;12.10;99.90;;;;;;4965277;28;20026;-89
2023/03/31 14:01:21;;;;;;;7.28;2.25;;;12.10;99.90;;;;;;4967928;28;20034;-90
2023/03/31 14:04:25;;;;;;;7.60;1.75;;;12.10;99.90;;;;;;4964722;28;20051;-89
2023/03/31 14:06:55;;;;;;;4.38;1.42;;;12.10;99.90;;;;;;4959818;28;20523;-91
2023/03/31 14:09:21;;;;;;;4.80;1.45;;;12.10;99.90;;;;;;4958023;29;20057;-91
2023/03/31 14:11:46;;;;;;;5.20;1.83;;;12.10;99.90;;;;;;4956601;28;20051;-90
2023/03/31 14:14:14;;;;;;;7.60;1.80;;;12.10;99.90;;;;;;4958119;28;20475;-92
2023/03/31 14:17:00;;;;;;;3.40;1.70;;;12.10;99.90;;;;;;4958163;28;20166;-91
2023/03/31 14:19:44;;;;;;;6.22;1.90;;;12.00;99.90;;;;;;4958012;29;20031;-91
2023/03/31 14:22:41;;;;;;;3.45;1.50;;;11.90;99.90;;;;;;4957432;29;20122;-92
2023/03/31 14:25:34;;;;;;;8.63;2.40;;;11.90;99.90;;;;;;4956433;29;20028;-86
2023/03/31 14:28:31;;;;;;;3.65;1.20;;;11.90;99.90;;;;;;4956070;29;20033;-87
2023/03/31 14:34:42;;;;;;;4.32;2.05;;;11.90;99.90;;;;;;4956647;28;20436;-93
2023/03/31 14:37:57;;;;;;;7.03;1.83;;;11.80;99.90;;;;;;4960734;28;20023;-92
2023/03/31 14:40:27;;;;;;;5.35;1.98;;;12.10;99.90;;;;;;4951571;28;20083;-92
2023/03/31 14:42:53;;;;;;;5.30;1.30;;;12.60;99.90;;;;;;4964348;23;20636;-92
2023/03/31 14:48:46;;;;;;;3.78;1.52;;;11.70;99.90;;;;;;4954778;23;20066;-94
2023/03/31 14:51:53;;;;;;;4.18;1.52;;;11.60;99.90;;;;;;4935579;29;20119;-93
2023/03/31 14:55:10;;;;;;;4.00;1.60;;;12.20;99.90;;;;;;4868811;29;20040;-92
2023/03/31 15:06:10;;;;;;;7.22;1.40;;;11.60;99.90;;;;;;4936367;29;20047;-94
2023/03/31 15:11:35;;;;;;;6.90;1.67;;;11.70;99.90;;;;;;5059887;23;20051;-91
2023/03/31 15:14:42;;;;;;;3.17;1.90;;;11.60;99.90;;;;;;4994502;28;20471;-90
2023/03/31 15:29:01;;;;;;;6.32;2.30;;;11.50;99.90;;;;;;4897495;29;20117;-91
2023/03/31 15:42:52;;;;;;;6.05;2.10;;;11.50;99.90;;;;;;4960099;23;20072;-93
2023/03/31 15:51:59;;;;;;;4.63;1.83;;;11.40;99.90;;;;;;4931112;29;20588;-92
2023/03/31 15:54:58;;;;;;;3.45;1.65;;;12.10;99.90;;;;;;4937677;29;20027;-91
2023/03/31 15:57:35;;;;;;;4.45;1.58;;;11.00;99.90;;;;;;4937626;29;20032;-92
2023/03/31 16:00:39;;;;;;;4.82;1.40;;;12.10;99.90;;;;;;4937077;29;20425;-92
2023/03/31 16:12:34;;;;;;;3.25;1.50;;;12.30;99.90;;;;;;4916338;29;20506;-92
2023/03/31 16:24:41;;;;;;;5.43;1.55;;;11.60;99.90;;;;;;4937572;29;20111;-93
2023/03/31 16:27:22;;;;;;;3.67;1.90;;;11.90;99.90;;;;;;4936898;29;20027;-94
2023/03/31 16:29:50;;;;;;;5.68;1.90;;;11.10;99.90;;;;;;4937357;29;20023;-92
2023/03/31 16:32:33;;;;;;;3.95;2.20;;;11.90;99.90;;;;;;4936942;29;20032;-92
2023/03/31 16:35:10;;;;;;;2.17;1.55;;;9.80;99.90;;;;;;4937357;29;20031;-92
2023/03/31 16:37:38;;;;;;;3.08;2.08;;;11.30;99.90;;;;;;4940786;29;20051;-94
2023/03/31 16:40:07;;;;;;;3.45;1.92;;;12.70;99.90;;;;;;4940278;29;20563;-93
2023/03/31 16:42:33;;;;;;;3.65;2.42;;;11.30;99.90;;;;;;4940345;29;20062;-96
2023/03/31 16:44:59;;;;;;;5.25;2.38;;;12.10;99.90;;;;;;4938870;29;20495;-95
2023/03/31 16:47:26;;;;;;;5.78;2.85;;;12.00;99.90;;;;;;4940460;29;20435;-94
2023/03/31 16:52:55;;;;;;;;;;;11.90;99.90;;;;;;4980181;23;20085;-93
2023/03/31 18:03:14;;;;;;;8.18;2.65;;;11.20;99.90;;;;;;4543979;23;20347;31
2023/03/31 20:24:32;;;;;;;8.50;2.63;;;10.70;99.90;;;;;;4942490;29;20057;-91
2023/03/31 20:27:25;;;;;;;13.57;3.03;;;10.60;99.90;;;;;;4936988;29;20028;-91
2023/03/31 20:30:03;;;;;;;8.02;2.55;;;10.60;99.90;;;;;;4897738;29;20541;-90
2023/03/31 20:32:37;;;;;;;9.45;2.80;;;10.60;99.90;;;;;;4932705;29;20026;-91
2023/03/31 20:35:14;;;;;;;11.40;4.05;;;10.00;99.90;;;;;;4928303;29;20028;-92
2023/03/31 20:37:53;;;;;;;9.68;2.38;;;10.70;99.90;;;;;;4954882;29;20027;-93
2023/03/31 20:40:33;;;;;;;5.13;2.13;;;10.50;99.90;;;;;;4970995;28;20086;-92
2023/03/31 20:43:02;;;;;;;14.13;2.88;;;11.00;99.90;;;;;;4969196;29;20022;-92
2023/03/31 20:46:03;;;;;;;;;;;;;;;;;;;;;
2023/03/31 20:48:31;;;;;;;8.52;3.13;;;10.60;99.90;;;;;;4905808;29;20058;-91
2023/03/31 20:54:08;;;;;;;16.42;3.53;;;10.50;99.90;;;;;;4959132;23;20074;-92